Manilla, Indiana
Current Conditions -  °F | °C
As of 1:53 PM on Thursday 30 Oct 2014 (Local Time) from KGEZ Reporting Station
Clear Clear  
Wind Chill: 53°   Ceiling: Unl
Heat Index: 53°   Visibility: 10mi
Dew Point: 34°   Wind: 6mph
Humidity: 48%   Direction: 280°W
Pressure: 30.11"   Gusts: NA
Location:  39.57°N, 85.62°W
Report Text: KGEZ 301753Z AUTO 28005KT 10SM CLR 12/01 A3011 RMK AO2 SLP198 I6000 T01170011 10117 20006 58016
Loading
Personal Weather Stations






























Interactive Weather Map
Tropical Storm Tracking
New forecast layout! Learn more

10-Day Weather Forecast

Advertisements
Track Severe Weather on mobile